Pride Of Indore — V7PQ2 — position and weather

sailwx.info

Track history (hours):
 
Tides and Currents Weather Stations Pressure Air Temp Water Temp Dewpoint Dewpoint Depression Visibility Wind Speed Wind Dir Waves Ship Positions

Pride Of Indore

Last reported at 2018-Jul-17 06:10 UTC. Time now 2018-Jul-18 08:59 UTC.
Position S 26°32' W 045°25'.

Length 225 m; draft 12.5 m.

Type: Cargo ship. MMSI: 538003266.

Date/timePositionNaut miles runAvg speedWind from/ knotsBaromVisibWave heightAir tempDewpointWater temp
2018-Jul-17 06:10S 26°32' W 045°25'212.3
2018-Jul-17 06:00S 26°31' W 045°27'4712.2
2018-Jul-17 02:12S 26°15' W 046°16'1312.7
2018-Jul-17 01:09S 26°10' W 046°30'212.7
2018-Jul-17 01:00S 26°10' W 046°32'613.0
2018-Jul-17 00:30S 26°07' W 046°39'1513.4
2018-Jul-16 23:22S 26°02' W 046°55'1313.7
2018-Jul-16 22:24S 25°57' W 047°08'713.7
2018-Jul-16 21:55S 25°55' W 047°15'613.7
2018-Jul-16 21:30S 25°53' W 047°21'713.5
2018-Jul-16 21:00S 25°50' W 047°28'  
2018-Jul-09 07:51S 24°21' W 046°21'613.2
2018-Jul-09 07:23S 24°16' W 046°24'513.3
2018-Jul-09 07:00S 24°11' W 046°26'611.9
2018-Jul-09 06:30S 24°06' W 046°24'511.0
2018-Jul-09 06:00S 24°01' W 046°21'4 6.1
2018-Jul-09 05:22S 23°58' W 046°18'  
Track history (hours):
 
Tides and Currents Weather Stations Pressure Air Temp Water Temp Dewpoint Dewpoint Depression Visibility Wind Speed Wind Dir Waves Ship Positions

Pride Of Indore

Last reported at 2018-Jul-17 06:10 UTC. Time now 2018-Jul-18 08:59 UTC.
Position S 26°32' W 045°25'.

Length 225 m; draft 12.5 m.

Type: Cargo ship. MMSI: 538003266.

Date/timePositionNaut miles runAvg speedWind from/ knotsBaromVisibWave heightAir tempDewpointWater temp
2018-Jul-17 06:10S 26°32' W 045°25'212.3
2018-Jul-17 06:00S 26°31' W 045°27'4712.2
2018-Jul-17 02:12S 26°15' W 046°16'1312.7
2018-Jul-17 01:09S 26°10' W 046°30'212.7
2018-Jul-17 01:00S 26°10' W 046°32'613.0
2018-Jul-17 00:30S 26°07' W 046°39'1513.4
2018-Jul-16 23:22S 26°02' W 046°55'1313.7
2018-Jul-16 22:24S 25°57' W 047°08'713.7
2018-Jul-16 21:55S 25°55' W 047°15'613.7
2018-Jul-16 21:30S 25°53' W 047°21'713.5
2018-Jul-16 21:00S 25°50' W 047°28'  
2018-Jul-09 07:51S 24°21' W 046°21'613.2
2018-Jul-09 07:23S 24°16' W 046°24'513.3
2018-Jul-09 07:00S 24°11' W 046°26'611.9
2018-Jul-09 06:30S 24°06' W 046°24'511.0
2018-Jul-09 06:00S 24°01' W 046°21'4 6.1
2018-Jul-09 05:22S 23°58' W 046°18'  

Dump ship's entire track history